This is the latest recevied weather packets stored in our database for station/object KE8WAY. If no packets are shown the sender has not sent any weather packets the latest 1 day(s).
| Time | Temp. | Humidity | Pressure | Rain* | Wind** | Luminosity | Snow |
|---|---|---|---|---|---|---|---|
| 1778081777 | 12.22° C | 44% | 1011.5 hPa | 0 mm | - | 506 W/m² | - |
| 1778080264 | 12.22° C | 46% | 1011.5 hPa | 0 mm | - | 396 W/m² | - |
| 1778075116 | 10.56° C | 63% | 1010.7 hPa | 0 mm | - | 447 W/m² | - |
| 1778073595 | 10° C | 62% | 1010.5 hPa | 0 mm | - | 345 W/m² | - |
| 1778073292 | 10° C | 66% | 1010.5 hPa | 0 mm | - | 328 W/m² | - |
| 1778072685 | 10° C | 67% | 1010.3 hPa | 0 mm | - | 288 W/m² | - |
| 1778072383 | 9.44° C | 65% | 1010.3 hPa | 0 mm | - | 248 W/m² | - |
| 1778071779 | 9.44° C | 68% | 1010.2 hPa | 0 mm | - | 262 W/m² | - |
| 1778071476 | 8.89° C | 70% | 1010.2 hPa | 0 mm | - | 252 W/m² | - |
| 1778066938 | 7.78° C | 87% | 1009.4 hPa | 0 mm | - | 40 W/m² | - |
| 1778065728 | 7.22° C | 87% | 1009.3 hPa | 0 mm | - | 13 W/m² | - |
| 1778064818 | 7.22° C | 88% | 1008.8 hPa | 0 mm | - | 4 W/m² | - |
| 1778064516 | 7.22° C | 87% | 1008.5 hPa | 0 mm | - | 4 W/m² | - |
| 1778064213 | 7.22° C | 87% | 1008.5 hPa | 0 mm | - | 2 W/m² | - |
| 1778063608 | 7.22° C | 87% | 1008.2 hPa | 0 mm | - | 0 W/m² | - |
| 1778063003 | 7.22° C | 90% | 1008.4 hPa | 0 mm | - | 0 W/m² | - |
| 1778062700 | 7.22° C | 90% | 1008.5 hPa | 0 mm | - | 0 W/m² | - |
| 1778062396 | 7.22° C | 90% | 1008.5 hPa | 0 mm | - | 0 W/m² | - |
| 1778061187 | 7.22° C | 91% | 1008.3 hPa | 0 mm | - | 0 W/m² | - |
| 1778060884 | 7.22° C | 90% | 1008.4 hPa | 0 mm | - | 0 W/m² | - |
| 1778059978 | 7.22° C | 90% | 1007.8 hPa | 0 mm | - | 0 W/m² | - |
| 1778059675 | 7.22° C | 90% | 1008 hPa | 0 mm | - | 0 W/m² | - |
| 1778058767 | 7.22° C | 89% | 1008.4 hPa | 0 mm | - | 0 W/m² | - |
| 1778058465 | 7.22° C | 91% | 1008.4 hPa | 0 mm | - | 0 W/m² | - |
| 1778057858 | 7.22° C | 91% | 1008.4 hPa | 0 mm | - | 0 W/m² | - |
* Rain latest hour (hover to see other rain measurements)
** Current wind speed in m/s (hover to see current wind gust speed)